Time;durP1;ratioP1;P1;durP2;ratioP2;P2;SDS_P1;SDS_P2;PMS_P1;PMS_P2;Temp;Humidity;BMP_temperature;BMP_pressure;BME280_temperature;BME280_humidity;BME280_pressure;Samples;Min_cycle;Max_cycle;Signal;HPM_P1;HPM_P2
2022/11/29 00:01:33;;;;;;;11.75;5.88;;;7.10;99.90;;;;;;4956593;28;20058;-61
2022/11/29 00:04:00;;;;;;;12.35;5.72;;;7.00;99.90;;;;;;4968635;28;20055;-59
2022/11/29 00:06:29;;;;;;;11.93;5.50;;;7.00;99.90;;;;;;4968445;28;20057;-59
2022/11/29 00:08:57;;;;;;;10.88;6.15;;;7.00;99.90;;;;;;4968943;28;20069;-59
2022/11/29 00:14:14;;;;;;;18.70;6.20;;;7.00;99.90;;;;;;4967804;28;20058;-60
2022/11/29 00:16:40;;;;;;;11.73;6.20;;;7.00;99.90;;;;;;4966581;28;20050;-61
2022/11/29 00:19:08;;;;;;;12.30;6.50;;;7.10;99.90;;;;;;4966587;28;20051;-60
2022/11/29 00:21:35;;;;;;;25.63;9.55;;;7.20;99.90;;;;;;4966063;28;20046;-60
2022/11/29 00:24:02;;;;;;;21.25;9.90;;;7.20;99.90;;;;;;4967480;28;20047;-60
2022/11/29 00:26:29;;;;;;;22.35;11.27;;;7.30;99.90;;;;;;4970526;28;20062;-59
2022/11/29 00:28:55;;;;;;;28.88;12.18;;;7.40;99.90;;;;;;4983406;28;20060;-59
2022/11/29 00:31:29;;;;;;;29.27;12.02;;;7.40;99.90;;;;;;4968970;28;20072;-61
2022/11/29 00:33:56;;;;;;;40.47;14.65;;;7.40;99.90;;;;;;4969401;28;20049;-60
2022/11/29 00:36:23;;;;;;;49.63;13.07;;;7.50;99.90;;;;;;4969222;28;20055;-60
2022/11/29 00:38:50;;;;;;;56.10;15.10;;;7.50;99.90;;;;;;4969462;28;20051;-60
2022/11/29 00:41:17;;;;;;;39.83;14.52;;;7.60;99.90;;;;;;4968660;28;20051;-60
2022/11/29 00:43:43;;;;;;;41.03;14.60;;;7.60;99.90;;;;;;4971959;28;20138;-60
2022/11/29 00:46:11;;;;;;;34.78;15.63;;;7.60;99.90;;;;;;4969597;28;20415;-59
2022/11/29 00:48:38;;;;;;;50.53;14.93;;;7.60;99.90;;;;;;4969103;28;20449;-60
2022/11/29 00:51:05;;;;;;;39.15;15.45;;;7.70;99.90;;;;;;4969238;28;20046;-59
2022/11/29 00:53:32;;;;;;;36.13;14.73;;;7.70;99.90;;;;;;4968627;28;20051;-60
2022/11/29 00:55:59;;;;;;;58.20;14.50;;;7.80;99.90;;;;;;4949906;29;20062;-59
2022/11/29 00:58:27;;;;;;;39.35;16.17;;;7.80;99.90;;;;;;4962910;28;20062;-59
2022/11/29 01:00:53;;;;;;;33.65;14.32;;;7.80;99.90;;;;;;4981888;28;20084;-59
2022/11/29 01:03:20;;;;;;;36.80;13.30;;;7.80;99.90;;;;;;4983517;28;20182;-59
2022/11/29 01:05:47;;;;;;;26.20;13.77;;;7.80;99.90;;;;;;4978888;28;20057;-59
2022/11/29 01:08:14;;;;;;;28.70;12.23;;;7.80;99.90;;;;;;4979248;28;20047;-60
2022/11/29 01:10:41;;;;;;;31.95;12.35;;;7.80;99.90;;;;;;4968848;28;20061;-60
2022/11/29 01:13:08;;;;;;;34.50;12.95;;;7.80;99.90;;;;;;4968840;28;20410;-60
2022/11/29 01:15:35;;;;;;;31.23;12.95;;;7.80;99.90;;;;;;4969112;28;20055;-60
2022/11/29 01:18:02;;;;;;;24.77;13.40;;;7.80;99.90;;;;;;4968115;28;20054;-59
2022/11/29 01:20:29;;;;;;;29.48;13.10;;;7.90;99.90;;;;;;4969103;28;20509;-59
2022/11/29 01:22:55;;;;;;;25.33;12.73;;;7.90;99.90;;;;;;4968796;28;20051;-59
2022/11/29 01:25:22;;;;;;;30.77;12.20;;;7.90;99.90;;;;;;4968464;28;20043;-60
2022/11/29 01:27:49;;;;;;;23.98;12.52;;;7.90;99.90;;;;;;4968479;28;20051;-59
2022/11/29 01:30:16;;;;;;;28.35;12.32;;;7.90;99.90;;;;;;4968874;28;20057;-59
2022/11/29 01:32:42;;;;;;;30.02;12.05;;;7.80;99.90;;;;;;4969063;28;20103;-59
2022/11/29 01:35:09;;;;;;;30.33;12.90;;;7.80;99.90;;;;;;4968555;28;20089;-59
2022/11/29 01:37:36;;;;;;;23.25;11.93;;;7.80;99.90;;;;;;4968058;28;20063;-60
2022/11/29 01:40:03;;;;;;;23.63;11.95;;;7.80;99.90;;;;;;4967768;28;20058;-60
2022/11/29 01:42:30;;;;;;;24.88;12.50;;;7.90;99.90;;;;;;4967239;28;20082;-60
2022/11/29 01:45:24;;;;;;;25.80;11.38;;;7.90;99.90;;;;;;4967798;28;20058;-60
2022/11/29 01:47:53;;;;;;;30.80;12.55;;;7.90;99.90;;;;;;4947901;29;20048;-61
2022/11/29 01:50:20;;;;;;;28.55;12.32;;;7.90;99.90;;;;;;4962082;28;20055;-60
2022/11/29 01:52:46;;;;;;;27.35;12.10;;;7.90;99.90;;;;;;4980723;28;20129;-60
2022/11/29 01:55:13;;;;;;;34.80;13.55;;;7.90;99.90;;;;;;4979310;28;20057;-60
2022/11/29 01:57:40;;;;;;;31.83;13.82;;;7.90;99.90;;;;;;4970269;28;20047;-60
2022/11/29 02:00:12;;;;;;;29.17;12.43;;;7.90;99.90;;;;;;4955424;28;20054;-59
2022/11/29 02:02:50;;;;;;;35.15;12.50;;;7.90;99.90;;;;;;4968764;28;20051;-59
2022/11/29 02:05:17;;;;;;;34.30;15.10;;;7.90;99.90;;;;;;4971323;28;20387;-59
2022/11/29 02:07:45;;;;;;;40.38;14.40;;;7.90;99.90;;;;;;4968374;28;20053;-59
2022/11/29 02:10:12;;;;;;;34.45;13.70;;;7.90;99.90;;;;;;4967281;28;20043;-59
2022/11/29 02:12:43;;;;;;;32.90;13.77;;;7.90;99.90;;;;;;4975799;28;20505;-59
2022/11/29 02:15:28;;;;;;;35.45;14.43;;;7.90;99.90;;;;;;4980719;28;20043;-59
2022/11/29 02:18:11;;;;;;;32.47;13.77;;;7.90;99.90;;;;;;4971259;28;20188;-60
2022/11/29 02:20:47;;;;;;;37.00;14.10;;;7.90;99.90;;;;;;4974794;28;20039;-60
2022/11/29 02:23:43;;;;;;;38.97;16.33;;;7.80;99.90;;;;;;4980734;28;20046;-59
2022/11/29 02:26:28;;;;;;;33.50;13.82;;;7.70;99.90;;;;;;4970446;28;20039;-59
2022/11/29 02:29:25;;;;;;;44.97;17.25;;;7.70;99.90;;;;;;4971590;28;20059;-60
2022/11/29 02:31:57;;;;;;;42.78;15.82;;;7.80;99.90;;;;;;4971685;28;20058;-60
2022/11/29 02:34:50;;;;;;;35.97;15.18;;;7.80;99.90;;;;;;4970628;28;20062;-60
2022/11/29 02:37:35;;;;;;;40.50;15.73;;;7.80;99.90;;;;;;4974168;28;20055;-60
2022/11/29 02:40:40;;;;;;;38.35;16.08;;;7.80;99.90;;;;;;4970787;28;20054;-60
2022/11/29 02:43:19;;;;;;;37.88;16.33;;;7.80;99.90;;;;;;4971643;28;20057;-59
2022/11/29 02:45:55;;;;;;;34.08;15.38;;;7.80;99.90;;;;;;4971461;28;20047;-59
2022/11/29 02:48:32;;;;;;;38.13;17.17;;;7.80;99.90;;;;;;4971516;28;20071;-59
2022/11/29 02:51:13;;;;;;;49.67;17.27;;;7.80;99.90;;;;;;4971429;28;20046;-60
2022/11/29 02:53:49;;;;;;;44.95;16.40;;;7.80;99.90;;;;;;4950566;28;20042;-60
2022/11/29 02:56:20;;;;;;;37.47;18.13;;;7.80;99.90;;;;;;4974499;28;20654;-60
2022/11/29 02:59:19;;;;;;;40.72;16.50;;;7.80;99.90;;;;;;4964838;28;20508;-61
2022/11/29 03:02:01;;;;;;;40.20;15.07;;;7.80;99.90;;;;;;4969712;28;20046;-60
2022/11/29 03:04:33;;;;;;;38.25;18.52;;;7.80;99.90;;;;;;4963655;28;20075;-60
2022/11/29 03:07:51;;;;;;;39.15;16.10;;;7.80;99.90;;;;;;4982544;28;21102;-60
2022/11/29 03:10:37;;;;;;;34.13;14.68;;;7.80;99.90;;;;;;4968886;28;20101;-60
2022/11/29 03:13:07;;;;;;;37.60;17.25;;;7.80;99.90;;;;;;4965581;28;20101;-60
2022/11/29 03:15:43;;;;;;;43.13;16.40;;;7.90;99.90;;;;;;4954335;28;20075;-59
2022/11/29 03:18:33;;;;;;;34.53;15.13;;;7.90;99.90;;;;;;4969170;28;20046;-60
2022/11/29 03:21:34;;;;;;;32.17;15.05;;;8.00;99.90;;;;;;4971253;28;20069;-60
2022/11/29 03:24:23;;;;;;;38.65;16.10;;;8.00;99.90;;;;;;4984232;28;20046;-60
2022/11/29 03:27:00;;;;;;;37.10;17.15;;;8.00;99.90;;;;;;4955758;28;20121;-60
2022/11/29 03:29:47;;;;;;;46.00;18.60;;;8.00;99.90;;;;;;4980179;28;20051;-59
2022/11/29 03:32:21;;;;;;;39.03;15.65;;;8.00;99.90;;;;;;4954228;28;20050;-60
2022/11/29 03:35:12;;;;;;;35.90;13.88;;;8.00;99.90;;;;;;4980747;28;20057;-59
2022/11/29 03:37:57;;;;;;;29.83;15.57;;;8.00;99.90;;;;;;4973391;28;20543;-59
2022/11/29 03:40:47;;;;;;;27.15;13.93;;;8.00;99.90;;;;;;4972552;28;20046;-60
2022/11/29 03:43:39;;;;;;;36.92;15.77;;;7.90;99.90;;;;;;4960254;28;20086;-62
2022/11/29 03:46:11;;;;;;;34.20;14.85;;;7.90;99.90;;;;;;4979369;28;20050;-60
2022/11/29 03:48:50;;;;;;;32.88;14.38;;;7.90;99.90;;;;;;4980818;28;20043;-60
2022/11/29 03:52:01;;;;;;;31.42;14.95;;;7.90;99.90;;;;;;4973575;28;20058;-60
2022/11/29 03:54:36;;;;;;;32.95;16.58;;;7.90;99.90;;;;;;4964906;28;20133;-60
2022/11/29 03:57:03;;;;;;;32.80;15.18;;;8.00;99.90;;;;;;4949628;29;20054;-60
2022/11/29 03:59:40;;;;;;;34.75;15.02;;;7.90;99.90;;;;;;4964502;28;20049;-60
2022/11/29 04:02:41;;;;;;;34.65;14.82;;;7.90;99.90;;;;;;4984702;28;20347;-60
2022/11/29 04:05:17;;;;;;;23.15;13.35;;;7.90;99.90;;;;;;4969077;28;20061;-60
2022/11/29 04:08:07;;;;;;;39.80;16.75;;;8.00;99.90;;;;;;4970076;28;20073;-60
2022/11/29 04:11:07;;;;;;;29.40;12.75;;;8.10;99.90;;;;;;4968665;28;20429;-60
2022/11/29 04:13:52;;;;;;;26.30;14.27;;;8.00;99.90;;;;;;4969796;28;20059;-60
2022/11/29 04:16:30;;;;;;;23.98;14.02;;;8.00;99.90;;;;;;4969981;28;20402;-61
2022/11/29 04:19:10;;;;;;;27.98;12.98;;;8.00;99.90;;;;;;4968592;28;20553;-61
2022/11/29 04:21:55;;;;;;;29.80;13.60;;;7.90;99.90;;;;;;4965226;28;20051;-60
2022/11/29 04:24:43;;;;;;;33.83;15.00;;;7.90;99.90;;;;;;4969619;28;20126;-61
2022/11/29 04:27:19;;;;;;;34.88;14.18;;;7.90;99.90;;;;;;4969476;28;20066;-60
2022/11/29 04:30:10;;;;;;;24.83;12.93;;;7.90;99.90;;;;;;4969341;28;20061;-60
2022/11/29 04:32:55;;;;;;;31.90;13.80;;;8.00;99.90;;;;;;4969755;28;20073;-60
2022/11/29 04:35:47;;;;;;;26.27;12.95;;;7.90;99.90;;;;;;4969547;28;20078;-60
2022/11/29 04:38:35;;;;;;;24.10;13.30;;;7.90;99.90;;;;;;4969333;28;20057;-60
2022/11/29 04:41:32;;;;;;;33.00;13.93;;;7.80;99.90;;;;;;4968873;28;20086;-60
2022/11/29 04:44:25;;;;;;;30.77;14.10;;;7.90;99.90;;;;;;4969778;28;20051;-60
2022/11/29 04:47:03;;;;;;;27.92;14.30;;;7.90;99.90;;;;;;4942821;28;20053;-60
2022/11/29 04:49:40;;;;;;;35.25;15.20;;;7.90;99.90;;;;;;4967737;28;20061;-60
2022/11/29 04:52:21;;;;;;;29.13;13.70;;;7.90;99.90;;;;;;4975741;28;20482;-60
2022/11/29 04:54:54;;;;;;;32.13;14.40;;;7.90;99.90;;;;;;4968094;28;20053;-60
2022/11/29 04:57:21;;;;;;;27.42;11.73;;;7.90;99.90;;;;;;4968927;28;20049;-60
2022/11/29 05:00:09;;;;;;;33.25;14.45;;;7.90;99.90;;;;;;4966052;28;20049;-61
2022/11/29 05:02:54;;;;;;;30.08;12.05;;;7.80;99.90;;;;;;4965411;28;20058;-61
2022/11/29 05:05:48;;;;;;;27.85;13.05;;;7.80;99.90;;;;;;4981065;28;20050;-59
2022/11/29 05:08:45;;;;;;;27.25;13.73;;;7.90;99.90;;;;;;4974469;28;20051;-59
2022/11/29 05:11:18;;;;;;;27.05;12.77;;;7.80;99.90;;;;;;4968869;28;20051;-60
2022/11/29 05:13:52;;;;;;;25.77;13.10;;;7.90;99.90;;;;;;4969249;28;20074;-60
2022/11/29 05:16:22;;;;;;;27.60;13.88;;;7.90;99.90;;;;;;4968954;28;20051;-59
2022/11/29 05:19:25;;;;;;;22.25;12.48;;;7.90;99.90;;;;;;4976074;28;20074;-59
2022/11/29 05:22:31;;;;;;;22.20;12.98;;;7.90;99.90;;;;;;4968989;28;20057;-59
2022/11/29 05:25:14;;;;;;;29.40;12.82;;;7.80;99.90;;;;;;4945820;28;20051;-60
2022/11/29 05:27:53;;;;;;;33.00;12.68;;;7.90;99.90;;;;;;4979535;28;20055;-60
2022/11/29 05:30:21;;;;;;;27.65;12.90;;;7.90;99.90;;;;;;4968801;28;20047;-60
2022/11/29 05:32:50;;;;;;;29.67;13.23;;;7.90;99.90;;;;;;4955435;28;20086;-60
2022/11/29 05:35:20;;;;;;;24.98;11.85;;;7.90;99.90;;;;;;4968748;28;20047;-60
2022/11/29 05:37:52;;;;;;;26.13;13.15;;;7.90;99.90;;;;;;4968350;28;20058;-60
2022/11/29 05:40:44;;;;;;;31.67;12.50;;;7.90;99.90;;;;;;4966531;28;20182;-59
2022/11/29 05:43:37;;;;;;;22.70;12.38;;;7.90;99.90;;;;;;4968379;28;20078;-59
2022/11/29 05:46:49;;;;;;;25.67;13.02;;;7.80;99.90;;;;;;4968662;28;20051;-60
2022/11/29 05:49:18;;;;;;;25.10;12.43;;;7.80;99.90;;;;;;4952478;28;20570;-59
2022/11/29 05:52:03;;;;;;;27.17;11.80;;;7.80;99.90;;;;;;4969851;28;20532;-59
2022/11/29 05:54:36;;;;;;;27.10;12.25;;;7.80;99.90;;;;;;4972365;28;20050;-59
2022/11/29 05:57:13;;;;;;;25.13;13.02;;;7.80;99.90;;;;;;4970891;28;20076;-60
2022/11/29 05:59:40;;;;;;;29.83;14.18;;;7.70;99.90;;;;;;4981937;28;20046;-59
2022/11/29 06:02:14;;;;;;;30.67;12.65;;;7.80;99.90;;;;;;4974824;28;20046;-59
2022/11/29 06:05:05;;;;;;;28.63;12.18;;;7.70;99.90;;;;;;4983428;28;20062;-60
2022/11/29 06:07:39;;;;;;;18.38;11.40;;;7.70;99.90;;;;;;4972423;28;20152;-60
2022/11/29 06:10:12;;;;;;;24.15;12.82;;;7.70;99.90;;;;;;4982040;28;20054;-60
2022/11/29 06:12:39;;;;;;;23.02;11.98;;;7.70;99.90;;;;;;4970787;28;20057;-60
2022/11/29 06:15:16;;;;;;;22.80;10.43;;;7.70;99.90;;;;;;4972263;28;20049;-59
2022/11/29 06:17:54;;;;;;;27.48;12.88;;;7.70;99.90;;;;;;4972027;28;20059;-61
2022/11/29 06:20:59;;;;;;;28.15;12.50;;;7.70;99.90;;;;;;4981623;28;20078;-59
2022/11/29 06:24:13;;;;;;;21.25;11.82;;;7.70;99.90;;;;;;4962229;28;20138;-60
2022/11/29 06:26:46;;;;;;;25.30;12.38;;;7.70;99.90;;;;;;4960172;28;20438;-59
2022/11/29 06:29:43;;;;;;;26.67;12.40;;;7.70;99.90;;;;;;4966987;28;20051;-59
2022/11/29 06:32:26;;;;;;;23.25;10.45;;;7.70;99.90;;;;;;4953462;28;20052;-60
2022/11/29 06:34:58;;;;;;;23.23;12.68;;;7.70;99.90;;;;;;4955938;28;20123;-61
2022/11/29 06:37:35;;;;;;;21.00;11.75;;;7.70;99.90;;;;;;4960697;28;20090;-59
2022/11/29 06:40:03;;;;;;;17.55;9.75;;;7.70;99.90;;;;;;4955919;28;20065;-61
2022/11/29 06:42:30;;;;;;;19.95;9.13;;;7.70;99.90;;;;;;4983648;28;20046;-61
2022/11/29 06:44:57;;;;;;;20.30;11.45;;;7.70;99.90;;;;;;4968915;28;20054;-61
2022/11/29 06:47:28;;;;;;;21.48;11.30;;;7.70;99.90;;;;;;4969525;28;20120;-60
2022/11/29 06:50:13;;;;;;;20.95;11.10;;;7.70;99.90;;;;;;4970900;28;20042;-60
2022/11/29 06:52:50;;;;;;;28.05;11.60;;;7.70;99.90;;;;;;4968882;28;20465;-60
2022/11/29 06:55:23;;;;;;;17.08;8.70;;;7.70;99.90;;;;;;4965861;28;20126;-60
2022/11/29 06:57:50;;;;;;;14.40;9.00;;;7.70;99.90;;;;;;4970988;28;20075;-60
2022/11/29 07:00:19;;;;;;;12.85;7.57;;;7.70;99.90;;;;;;4964514;28;20051;-59
2022/11/29 07:03:30;;;;;;;12.82;7.05;;;7.70;99.90;;;;;;4966742;28;20270;-60
2022/11/29 07:05:57;;;;;;;12.27;6.80;;;7.70;99.90;;;;;;4931773;29;20324;-61
2022/11/29 07:08:25;;;;;;;17.65;8.63;;;7.60;99.90;;;;;;4914211;29;20058;-61
2022/11/29 07:10:53;;;;;;;13.82;8.43;;;7.60;99.90;;;;;;4950664;28;20138;-60
2022/11/29 07:13:20;;;;;;;15.80;9.43;;;7.60;99.90;;;;;;4968553;28;20059;-61
2022/11/29 07:16:05;;;;;;;21.27;9.85;;;7.60;99.90;;;;;;4970174;28;20051;-61
2022/11/29 07:18:37;;;;;;;;;;;7.60;99.90;;;;;;4971273;28;20053;-60
2022/11/29 07:21:20;;;;;;;18.23;9.23;;;7.60;99.90;;;;;;4970308;28;19944;-61
2022/11/29 07:24:13;;;;;;;13.48;7.78;;;7.60;99.90;;;;;;4966167;28;20053;-60
2022/11/29 07:26:47;;;;;;;13.38;8.48;;;7.60;99.90;;;;;;4969683;28;20089;-61
2022/11/29 07:29:19;;;;;;;17.88;8.80;;;7.60;99.90;;;;;;4968544;28;20046;-61
2022/11/29 07:32:08;;;;;;;20.13;7.80;;;7.60;99.90;;;;;;4970085;28;20085;-61
2022/11/29 07:34:51;;;;;;;15.48;8.30;;;7.60;99.90;;;;;;4951621;29;20055;-60
2022/11/29 07:37:42;;;;;;;13.95;8.13;;;7.60;99.90;;;;;;4984504;28;20054;-61
2022/11/29 07:40:21;;;;;;;14.38;8.23;;;7.60;99.90;;;;;;4985273;28;20057;-60
2022/11/29 07:42:59;;;;;;;13.50;7.82;;;7.50;99.90;;;;;;4966666;28;20150;-61
2022/11/29 07:45:35;;;;;;;11.40;7.57;;;7.50;99.90;;;;;;4970303;28;20134;-60
2022/11/29 07:48:01;;;;;;;16.75;9.00;;;7.50;99.90;;;;;;4966145;28;20133;-60
2022/11/29 07:50:28;;;;;;;12.95;7.50;;;7.50;99.90;;;;;;4967155;28;20051;-60
2022/11/29 07:52:55;;;;;;;16.92;7.20;;;7.50;99.90;;;;;;4966521;28;20528;-61
2022/11/29 07:55:23;;;;;;;14.55;7.90;;;7.60;99.90;;;;;;4968668;28;20049;-60
2022/11/29 07:57:50;;;;;;;23.77;8.80;;;7.60;99.90;;;;;;4966839;28;20055;-61
2022/11/29 08:00:18;;;;;;;12.27;8.20;;;7.50;99.90;;;;;;4969102;28;20053;-60
2022/11/29 08:02:47;;;;;;;17.15;9.20;;;7.50;99.90;;;;;;4968152;28;20047;-60
2022/11/29 08:05:14;;;;;;;20.00;9.77;;;7.50;99.90;;;;;;4969719;28;20051;-59
2022/11/29 08:07:41;;;;;;;15.68;9.32;;;7.50;99.90;;;;;;4966141;28;20055;-64
2022/11/29 08:10:10;;;;;;;14.70;8.88;;;7.50;99.90;;;;;;4944949;28;20722;-60
2022/11/29 08:12:45;;;;;;;14.48;9.10;;;7.50;99.90;;;;;;4967028;28;20047;-60
2022/11/29 08:15:12;;;;;;;16.50;9.98;;;7.60;99.90;;;;;;4964682;28;20057;-60
2022/11/29 08:17:39;;;;;;;13.63;9.00;;;7.60;99.90;;;;;;4965331;28;20050;-60
2022/11/29 08:20:07;;;;;;;18.45;9.73;;;7.60;99.90;;;;;;4967355;28;20055;-61
2022/11/29 08:22:34;;;;;;;15.90;9.48;;;7.60;99.90;;;;;;4968262;28;20125;-60
2022/11/29 08:25:00;;;;;;;20.35;10.35;;;7.60;99.90;;;;;;4967854;28;20043;-61
2022/11/29 08:27:27;;;;;;;14.90;9.50;;;7.60;99.90;;;;;;4971579;28;20059;-60
2022/11/29 08:29:54;;;;;;;25.05;11.30;;;7.50;99.90;;;;;;4971327;28;20046;-61
2022/11/29 08:32:21;;;;;;;20.13;10.63;;;7.50;99.90;;;;;;4969241;28;20046;-61
2022/11/29 08:34:47;;;;;;;20.20;9.50;;;7.50;99.90;;;;;;4969409;28;20494;-61
2022/11/29 08:37:14;;;;;;;17.48;9.80;;;7.60;99.90;;;;;;4968426;28;20081;-61
2022/11/29 08:39:41;;;;;;;15.07;9.18;;;7.60;99.90;;;;;;4968065;28;20057;-61
2022/11/29 08:42:08;;;;;;;18.45;10.15;;;7.50;99.90;;;;;;4968757;28;20074;-61
2022/11/29 08:44:35;;;;;;;15.23;9.70;;;7.50;99.90;;;;;;4968530;28;20490;-61
2022/11/29 08:50:02;;;;;;;15.38;10.02;;;7.60;99.90;;;;;;4965039;28;20859;-62
2022/11/29 08:55:22;;;;;;;20.25;11.07;;;7.60;99.90;;;;;;4967301;28;20050;-60
2022/11/29 08:57:49;;;;;;;18.42;9.60;;;7.60;99.90;;;;;;4981843;28;20153;-61
2022/11/29 09:00:16;;;;;;;18.23;10.30;;;7.60;99.90;;;;;;4968189;28;20047;-60
2022/11/29 09:02:43;;;;;;;24.33;10.27;;;7.60;99.90;;;;;;4961932;28;20054;-61
2022/11/29 09:05:10;;;;;;;17.05;9.98;;;7.60;99.90;;;;;;4967305;28;20480;-60
2022/11/29 09:07:37;;;;;;;21.67;9.43;;;7.50;99.90;;;;;;4965631;28;20146;-60
2022/11/29 09:10:07;;;;;;;18.67;8.73;;;7.40;99.90;;;;;;4965988;28;20073;-61
2022/11/29 09:12:37;;;;;;;14.27;8.55;;;7.50;99.90;;;;;;4966770;28;20051;-61
2022/11/29 09:15:05;;;;;;;14.30;7.47;;;7.60;99.90;;;;;;4982847;28;20050;-61
2022/11/29 09:17:32;;;;;;;11.75;7.72;;;7.50;99.90;;;;;;4965828;28;20114;-61
2022/11/29 09:19:59;;;;;;;13.82;7.15;;;7.50;99.90;;;;;;4968353;28;20605;-62
2022/11/29 09:22:26;;;;;;;13.18;6.93;;;7.40;99.90;;;;;;4968375;28;20134;-61
2022/11/29 09:24:52;;;;;;;15.40;7.43;;;7.40;99.90;;;;;;4965341;28;20049;-61
2022/11/29 09:27:19;;;;;;;14.02;6.82;;;7.30;99.90;;;;;;4966854;28;20055;-61
2022/11/29 09:29:46;;;;;;;15.90;7.88;;;7.30;99.90;;;;;;4967507;28;20046;-61
2022/11/29 09:32:13;;;;;;;15.07;7.38;;;7.40;99.90;;;;;;4965178;28;20502;-61
2022/11/29 09:34:40;;;;;;;12.98;6.70;;;7.40;99.90;;;;;;4966838;28;20448;-60
2022/11/29 09:37:07;;;;;;;13.95;6.90;;;7.40;99.90;;;;;;4960601;28;20053;-60
2022/11/29 09:39:34;;;;;;;13.07;7.85;;;7.40;99.90;;;;;;4951985;28;20047;-60
2022/11/29 09:42:22;;;;;;;16.08;7.35;;;7.50;99.90;;;;;;4967509;28;20050;-61
2022/11/29 09:45:05;;;;;;;10.40;6.50;;;7.50;99.90;;;;;;4966441;28;20050;-59
2022/11/29 09:48:13;;;;;;;14.63;6.93;;;7.40;99.90;;;;;;4957690;28;20161;-60
2022/11/29 09:50:45;;;;;;;13.45;7.47;;;7.40;99.90;;;;;;4947741;28;20050;-60
2022/11/29 09:53:18;;;;;;;14.75;7.45;;;7.40;99.90;;;;;;4966975;28;20073;-60
2022/11/29 09:56:24;;;;;;;13.93;8.95;;;7.40;99.90;;;;;;4968437;28;20050;-60
2022/11/29 09:58:57;;;;;;;15.05;8.35;;;7.40;99.90;;;;;;4968515;28;20051;-60
2022/11/29 10:01:27;;;;;;;14.63;8.35;;;7.50;99.90;;;;;;4968420;28;20053;-61
2022/11/29 10:04:00;;;;;;;13.18;8.02;;;7.50;99.90;;;;;;4967095;28;20043;-60
2022/11/29 10:06:35;;;;;;;15.57;8.38;;;7.50;99.90;;;;;;4951664;28;20141;-59
2022/11/29 10:09:21;;;;;;;15.43;8.75;;;7.50;99.90;;;;;;4967338;28;20069;-61
2022/11/29 10:12:11;;;;;;;13.90;7.13;;;7.60;99.90;;;;;;4964089;28;20050;-61
2022/11/29 10:15:12;;;;;;;18.55;9.98;;;7.60;99.90;;;;;;4946633;28;20059;-61
2022/11/29 10:17:46;;;;;;;13.48;7.28;;;7.60;99.90;;;;;;4973367;28;20122;-61
2022/11/29 10:20:18;;;;;;;17.30;9.57;;;7.50;99.90;;;;;;4965753;28;20625;-61
2022/11/29 10:22:54;;;;;;;17.55;7.90;;;7.50;99.90;;;;;;4966653;28;20065;-61
2022/11/29 10:25:31;;;;;;;14.43;8.85;;;7.60;99.90;;;;;;4966203;28;20057;-60
2022/11/29 10:27:57;;;;;;;15.25;8.07;;;7.60;99.90;;;;;;4963520;28;20522;-61
2022/11/29 10:30:24;;;;;;;11.20;7.45;;;7.70;99.90;;;;;;4967478;28;20051;-60
2022/11/29 10:32:55;;;;;;;14.23;7.35;;;7.70;99.90;;;;;;4960435;28;20105;-61
2022/11/29 10:35:22;;;;;;;10.02;7.32;;;7.70;99.90;;;;;;4965096;28;20130;-60
2022/11/29 10:37:51;;;;;;;18.85;8.35;;;7.70;99.90;;;;;;4968041;28;20065;-60
2022/11/29 10:40:37;;;;;;;18.15;8.38;;;7.80;99.90;;;;;;4938109;29;20498;-60
2022/11/29 10:43:04;;;;;;;10.88;7.53;;;7.70;99.90;;;;;;4966222;28;20057;-60
2022/11/29 10:45:54;;;;;;;12.98;7.72;;;7.60;99.90;;;;;;4970438;28;20047;-61
2022/11/29 10:48:23;;;;;;;18.05;8.02;;;7.60;99.90;;;;;;4970302;28;20051;-61
2022/11/29 10:50:51;;;;;;;13.27;8.07;;;7.60;99.90;;;;;;4970362;28;20057;-59
2022/11/29 10:53:34;;;;;;;15.50;8.23;;;7.60;99.90;;;;;;4969960;28;20053;-60
2022/11/29 10:56:23;;;;;;;13.07;7.27;;;7.70;99.90;;;;;;4950867;28;20486;-60
2022/11/29 10:59:08;;;;;;;13.15;7.32;;;7.70;99.90;;;;;;4967687;28;20292;-61
2022/11/29 11:01:37;;;;;;;12.63;7.72;;;7.70;99.90;;;;;;4969441;28;20054;-59
2022/11/29 11:04:06;;;;;;;15.00;7.30;;;7.80;99.90;;;;;;4972238;28;20056;-60
2022/11/29 11:06:46;;;;;;;14.43;8.18;;;7.80;99.90;;;;;;4972667;28;20080;-60
2022/11/29 11:09:21;;;;;;;13.45;7.53;;;7.80;99.90;;;;;;4970498;28;20061;-60
2022/11/29 11:11:56;;;;;;;15.15;8.10;;;7.80;99.90;;;;;;4969877;28;20051;-61
2022/11/29 11:14:25;;;;;;;14.73;7.85;;;7.80;99.90;;;;;;4969320;28;20063;-60
2022/11/29 11:16:52;;;;;;;18.45;7.63;;;7.90;99.90;;;;;;4970976;28;20047;-61
2022/11/29 11:19:32;;;;;;;18.55;8.35;;;8.00;99.90;;;;;;4969023;28;20051;-60
2022/11/29 11:22:00;;;;;;;14.10;9.05;;;8.00;99.90;;;;;;4966367;28;20139;-60
2022/11/29 11:24:31;;;;;;;12.50;7.25;;;8.00;99.90;;;;;;4966624;28;20109;-58
2022/11/29 11:26:58;;;;;;;15.60;8.48;;;8.00;99.90;;;;;;4949791;28;20052;-59
2022/11/29 11:29:36;;;;;;;20.15;8.90;;;8.00;99.90;;;;;;4979191;28;20057;-60
2022/11/29 11:32:03;;;;;;;12.90;7.97;;;7.90;99.90;;;;;;4969425;28;20043;-59
2022/11/29 11:34:36;;;;;;;15.57;9.02;;;7.90;99.90;;;;;;4970058;28;20134;-60
2022/11/29 11:37:24;;;;;;;17.05;8.23;;;7.90;99.90;;;;;;4969350;28;20131;-60
2022/11/29 11:39:56;;;;;;;15.70;9.38;;;7.90;99.90;;;;;;4970188;28;20051;-60
2022/11/29 11:42:36;;;;;;;16.88;9.23;;;7.80;99.90;;;;;;4970237;28;20051;-59
2022/11/29 11:45:09;;;;;;;15.40;10.05;;;7.70;99.90;;;;;;4970179;28;20485;-59
2022/11/29 11:47:41;;;;;;;20.95;11.95;;;7.80;99.90;;;;;;4969788;28;20916;-60
2022/11/29 11:50:12;;;;;;;19.05;10.90;;;7.70;99.90;;;;;;4957554;28;20047;-59
2022/11/29 11:52:38;;;;;;;19.95;10.82;;;7.70;99.90;;;;;;4970156;28;20051;-60
2022/11/29 11:55:36;;;;;;;19.48;9.63;;;7.70;99.90;;;;;;4970157;28;20070;-58
2022/11/29 11:58:13;;;;;;;18.50;10.32;;;7.80;99.90;;;;;;4949807;28;20673;-60
2022/11/29 12:00:52;;;;;;;16.05;10.48;;;7.90;99.90;;;;;;4966194;28;20050;-61
2022/11/29 12:03:54;;;;;;;16.85;9.77;;;7.90;99.90;;;;;;4970167;28;20080;-60
2022/11/29 12:06:29;;;;;;;15.23;8.48;;;7.90;99.90;;;;;;4969427;28;20053;-60
2022/11/29 12:09:21;;;;;;;18.60;10.50;;;7.90;99.90;;;;;;4968623;28;20062;-60
2022/11/29 12:12:16;;;;;;;19.33;10.38;;;7.90;99.90;;;;;;4964321;28;20042;-61
2022/11/29 12:14:49;;;;;;;;;;;7.90;99.90;;;;;;4967553;28;20053;-61
2022/11/29 12:17:31;;;;;;;19.83;10.93;;;7.90;99.90;;;;;;4969610;28;19929;-61
2022/11/29 12:20:19;;;;;;;21.60;11.23;;;7.90;99.90;;;;;;4969730;28;20097;-60
2022/11/29 12:23:05;;;;;;;21.20;10.73;;;7.80;99.90;;;;;;4964970;28;20514;-59
2022/11/29 12:25:39;;;;;;;24.05;12.45;;;7.90;99.90;;;;;;4969563;28;20326;-59
2022/11/29 12:28:14;;;;;;;32.08;12.65;;;7.90;99.90;;;;;;4976077;28;20137;-59
2022/11/29 12:31:14;;;;;;;24.70;13.23;;;7.90;99.90;;;;;;4969666;28;20057;-59
2022/11/29 12:34:02;;;;;;;21.75;12.52;;;7.90;99.90;;;;;;4978031;28;20054;-59
2022/11/29 12:36:41;;;;;;;18.80;11.23;;;7.90;99.90;;;;;;4968094;28;20055;-59
2022/11/29 12:39:27;;;;;;;23.48;12.43;;;7.90;99.90;;;;;;4968778;28;20088;-60
2022/11/29 12:42:10;;;;;;;16.02;11.07;;;7.80;99.90;;;;;;4967998;28;20054;-60
2022/11/29 12:44:44;;;;;;;22.23;10.30;;;7.90;99.90;;;;;;4949069;28;20051;-60
2022/11/29 12:47:54;;;;;;;20.05;10.32;;;7.90;99.90;;;;;;4979047;28;20395;-60
2022/11/29 12:50:38;;;;;;;19.75;9.55;;;7.90;99.90;;;;;;4968268;28;20059;-59
2022/11/29 12:53:33;;;;;;;18.23;9.23;;;8.00;99.90;;;;;;4965805;28;20051;-60
2022/11/29 12:56:18;;;;;;;14.85;8.98;;;7.90;99.90;;;;;;4967934;28;20122;-59
2022/11/29 12:59:14;;;;;;;16.65;8.45;;;7.90;99.90;;;;;;4959129;28;20051;-59
2022/11/29 13:02:10;;;;;;;18.00;7.72;;;7.90;99.90;;;;;;4966909;28;20142;-59
2022/11/29 13:05:03;;;;;;;15.50;7.25;;;7.90;99.90;;;;;;4969012;28;20050;-60
2022/11/29 13:07:54;;;;;;;15.32;7.38;;;8.00;99.90;;;;;;4967168;28;20069;-60
2022/11/29 13:10:48;;;;;;;14.60;7.80;;;8.00;99.90;;;;;;4969188;28;20556;-59
2022/11/29 13:13:20;;;;;;;12.13;6.88;;;8.00;99.90;;;;;;4967215;28;20055;-60
2022/11/29 13:16:07;;;;;;;15.32;6.43;;;8.00;99.90;;;;;;4968725;28;20581;-60
2022/11/29 13:18:40;;;;;;;10.32;6.03;;;8.00;99.90;;;;;;4967396;28;20070;-60
2022/11/29 13:21:15;;;;;;;12.65;6.00;;;8.00;99.90;;;;;;4967598;28;20054;-60
2022/11/29 13:23:45;;;;;;;9.32;6.10;;;8.00;99.90;;;;;;4967251;28;20412;-63
2022/11/29 13:26:32;;;;;;;10.82;6.07;;;8.00;99.90;;;;;;4968422;28;20050;-61
2022/11/29 13:28:59;;;;;;;13.85;7.82;;;8.00;99.90;;;;;;4967014;28;20051;-60
2022/11/29 13:31:26;;;;;;;12.25;6.38;;;8.00;99.90;;;;;;4967486;28;20050;-61
2022/11/29 13:33:57;;;;;;;14.02;6.07;;;8.00;99.90;;;;;;4968421;28;20055;-61
2022/11/29 13:36:44;;;;;;;11.60;6.22;;;8.00;99.90;;;;;;4952082;28;20082;-59
2022/11/29 13:39:26;;;;;;;11.65;7.63;;;8.00;99.90;;;;;;4967696;28;20182;-60
2022/11/29 13:42:18;;;;;;;18.70;7.35;;;8.00;99.90;;;;;;4971567;28;20050;-59